createdAt,value
2023-01-06T00:01:19.734Z,0.60
2023-01-06T00:03:51.785Z,0.65
2023-01-06T00:06:22.249Z,0.60
2023-01-06T00:08:49.011Z,0.68
2023-01-06T00:11:16.093Z,0.52
2023-01-06T00:13:43.958Z,0.70
2023-01-06T00:16:16.481Z,0.60
2023-01-06T00:18:47.050Z,0.75
2023-01-06T00:21:15.105Z,0.82
2023-01-06T00:23:42.099Z,0.80
2023-01-06T00:26:10.134Z,0.70
2023-01-06T00:28:37.461Z,0.80
2023-01-06T00:31:13.166Z,0.68
2023-01-06T00:33:39.988Z,1.00
2023-01-06T00:36:08.197Z,0.77
2023-01-06T00:38:38.144Z,0.98
2023-01-06T00:41:32.061Z,0.85
2023-01-06T00:43:59.578Z,1.13
2023-01-06T00:46:29.629Z,0.80
2023-01-06T00:49:05.601Z,0.90
2023-01-06T00:51:34.003Z,0.90
2023-01-06T00:54:01.023Z,0.80
2023-01-06T00:56:27.779Z,0.88
2023-01-06T00:58:55.560Z,1.08
2023-01-06T01:01:22.444Z,0.90
2023-01-06T01:03:49.191Z,0.80
2023-01-06T01:06:16.691Z,0.90
2023-01-06T01:08:43.894Z,1.00
2023-01-06T01:11:32.509Z,0.93
2023-01-06T01:13:59.483Z,0.90
2023-01-06T01:16:27.358Z,0.70
2023-01-06T01:18:54.242Z,0.88
2023-01-06T01:21:21.051Z,0.73
2023-01-06T01:23:49.044Z,1.02
2023-01-06T01:26:15.910Z,1.30
2023-01-06T01:28:44.609Z,0.90
2023-01-06T01:31:13.029Z,0.80
2023-01-06T01:33:39.765Z,1.10
2023-01-06T01:36:11.992Z,1.10
2023-01-06T01:38:38.865Z,1.00
2023-01-06T01:41:06.503Z,1.08
2023-01-06T01:43:54.601Z,0.80
2023-01-06T01:46:40.926Z,1.08
2023-01-06T01:49:32.238Z,0.82
2023-01-06T01:51:59.475Z,1.00
2023-01-06T01:54:30.488Z,0.80
2023-01-06T01:57:05.802Z,0.90
2023-01-06T01:59:36.591Z,1.00
2023-01-06T02:02:03.469Z,0.85
2023-01-06T02:04:33.284Z,0.75
2023-01-06T02:07:00.851Z,0.82
2023-01-06T02:09:37.157Z,0.80
2023-01-06T02:12:09.196Z,0.82
2023-01-06T02:14:35.945Z,0.90
2023-01-06T02:17:18.422Z,1.02
2023-01-06T02:20:00.185Z,0.90
2023-01-06T02:22:53.144Z,0.60
2023-01-06T02:25:48.944Z,0.70
2023-01-06T02:28:49.962Z,1.13
2023-01-06T02:31:40.687Z,0.70
2023-01-06T02:34:18.109Z,0.95
2023-01-06T02:37:02.584Z,0.85
2023-01-06T02:42:19.376Z,0.80
2023-01-06T02:45:02.272Z,0.60
2023-01-06T02:47:39.359Z,1.02
2023-01-06T02:50:24.775Z,0.90
2023-01-06T02:53:23.962Z,0.65
2023-01-06T02:55:54.014Z,0.60
2023-01-06T02:58:45.815Z,0.98
2023-01-06T03:01:18.848Z,0.68
2023-01-06T03:03:48.080Z,0.47
2023-01-06T03:06:24.085Z,0.50
2023-01-06T03:08:53.705Z,0.57
2023-01-06T03:11:20.869Z,0.70
2023-01-06T03:13:59.576Z,0.50
2023-01-06T03:16:26.781Z,0.70
2023-01-06T03:18:55.382Z,0.80
2023-01-06T03:21:27.832Z,0.77
2023-01-06T03:23:54.669Z,0.60
2023-01-06T03:26:21.746Z,0.75
2023-01-06T03:28:48.455Z,0.65
2023-01-06T03:31:39.990Z,0.40
2023-01-06T03:34:39.530Z,0.60
2023-01-06T03:37:21.704Z,0.50
2023-01-06T03:40:27.387Z,0.45
2023-01-06T03:43:12.927Z,0.50
2023-01-06T03:45:42.282Z,0.77
2023-01-06T03:48:30.734Z,0.60
2023-01-06T03:51:10.029Z,0.80
2023-01-06T03:53:50.998Z,0.47
2023-01-06T03:56:30.889Z,0.47
2023-01-06T03:59:11.683Z,0.60
2023-01-06T04:01:43.369Z,0.68
2023-01-06T04:04:10.347Z,0.68
2023-01-06T04:06:37.398Z,0.52
2023-01-06T04:09:04.502Z,0.63
2023-01-06T04:11:49.893Z,0.60
2023-01-06T04:14:16.737Z,0.52
2023-01-06T04:16:43.647Z,0.70
2023-01-06T04:19:10.374Z,0.60
2023-01-06T04:21:37.200Z,0.60
2023-01-06T04:24:04.393Z,0.70
2023-01-06T04:26:33.573Z,0.57
2023-01-06T04:29:01.364Z,0.50
2023-01-06T04:31:28.663Z,1.05
2023-01-06T04:33:55.420Z,0.60
2023-01-06T04:36:22.220Z,1.00
2023-01-06T04:38:48.921Z,1.10
2023-01-06T04:41:15.640Z,1.10
2023-01-06T04:43:42.395Z,0.60
2023-01-06T04:46:09.318Z,0.63
2023-01-06T04:48:36.083Z,0.90
2023-01-06T04:51:08.737Z,0.90
2023-01-06T04:53:37.014Z,0.60
2023-01-06T04:56:05.444Z,0.90
2023-01-06T04:58:32.808Z,1.05
2023-01-06T05:01:06.775Z,0.70
2023-01-06T05:06:03.625Z,0.60
2023-01-06T05:08:31.787Z,1.17
2023-01-06T05:11:03.844Z,0.88
2023-01-06T05:13:32.250Z,0.80
2023-01-06T05:15:59.066Z,0.68
2023-01-06T05:18:26.113Z,0.88
2023-01-06T05:20:56.894Z,0.70
2023-01-06T05:23:23.645Z,0.70
2023-01-06T05:25:52.588Z,1.00
2023-01-06T05:28:19.603Z,0.80
2023-01-06T05:30:46.810Z,0.90
2023-01-06T05:33:14.261Z,0.60
2023-01-06T05:35:41.093Z,0.70
2023-01-06T05:38:07.922Z,0.80
2023-01-06T05:40:35.578Z,0.80
2023-01-06T05:43:02.280Z,0.80
2023-01-06T05:45:29.050Z,0.98
2023-01-06T05:47:55.794Z,0.80
2023-01-06T05:50:25.591Z,0.90
2023-01-06T05:52:53.789Z,0.93
2023-01-06T05:55:21.504Z,0.60
2023-01-06T05:57:48.224Z,1.08
2023-01-06T06:00:16.762Z,0.80
2023-01-06T06:02:43.495Z,1.00
2023-01-06T06:05:10.496Z,0.70
2023-01-06T06:07:40.571Z,0.70
2023-01-06T06:10:11.651Z,1.17
2023-01-06T06:12:39.398Z,0.60
2023-01-06T06:15:08.780Z,0.93
2023-01-06T06:17:35.503Z,0.70
2023-01-06T06:20:03.411Z,0.60
2023-01-06T06:22:31.637Z,0.93
2023-01-06T06:24:58.311Z,0.68
2023-01-06T06:27:25.070Z,1.00
2023-01-06T06:29:51.839Z,0.70
2023-01-06T06:32:18.771Z,0.70
2023-01-06T06:34:45.445Z,0.80
2023-01-06T06:37:12.699Z,0.80
2023-01-06T06:39:39.621Z,0.88
2023-01-06T06:42:07.558Z,1.00
2023-01-06T06:44:34.251Z,0.77
2023-01-06T06:47:01.118Z,0.75
2023-01-06T06:49:27.831Z,0.90
2023-01-06T06:51:55.923Z,0.73
2023-01-06T06:54:22.869Z,1.00
2023-01-06T06:56:49.712Z,0.85
2023-01-06T06:59:18.324Z,0.90
2023-01-06T07:01:46.664Z,0.80
2023-01-06T07:04:17.880Z,0.80
2023-01-06T07:06:45.184Z,0.75
2023-01-06T07:09:12.951Z,0.70
2023-01-06T07:11:39.685Z,0.70
2023-01-06T07:14:08.169Z,1.13
2023-01-06T07:16:34.899Z,0.70
2023-01-06T07:19:01.594Z,0.60
2023-01-06T07:21:28.303Z,0.70
2023-01-06T07:23:54.997Z,0.73
2023-01-06T07:26:21.713Z,0.80
2023-01-06T07:28:48.509Z,0.60
2023-01-06T07:31:15.337Z,0.57
2023-01-06T07:33:42.125Z,0.70
2023-01-06T07:36:09.212Z,0.90
2023-01-06T07:38:36.064Z,0.50
2023-01-06T07:41:02.842Z,0.70
2023-01-06T07:43:29.641Z,0.85
2023-01-06T07:45:57.687Z,0.60
2023-01-06T07:48:25.692Z,0.57
2023-01-06T07:50:52.482Z,0.70
2023-01-06T07:53:19.268Z,0.70
2023-01-06T07:55:52.233Z,0.60
2023-01-06T07:58:19.166Z,0.70
2023-01-06T08:00:47.024Z,0.80
2023-01-06T08:03:14.228Z,1.08
2023-01-06T08:05:42.241Z,0.88
2023-01-06T08:08:13.323Z,0.75
2023-01-06T08:10:44.757Z,0.80
2023-01-06T08:13:11.770Z,1.38
2023-01-06T08:15:39.341Z,1.00
2023-01-06T08:18:06.762Z,0.80
2023-01-06T08:20:35.256Z,0.65
2023-01-06T08:23:02.918Z,1.20
2023-01-06T08:25:29.927Z,0.88
2023-01-06T08:27:59.113Z,0.90
2023-01-06T08:30:26.396Z,0.73
2023-01-06T08:32:57.249Z,1.23
2023-01-06T08:35:23.975Z,1.40
2023-01-06T08:37:50.789Z,1.20
2023-01-06T08:40:19.541Z,1.48
2023-01-06T08:42:47.361Z,1.52
2023-01-06T08:45:14.184Z,0.90
2023-01-06T08:47:42.016Z,1.20
2023-01-06T08:50:09.029Z,0.60
2023-01-06T08:52:35.781Z,0.70
2023-01-06T08:55:04.315Z,0.52
2023-01-06T08:57:34.863Z,0.50
2023-01-06T09:00:05.580Z,0.65
2023-01-06T09:02:32.423Z,0.60
2023-01-06T09:04:59.272Z,0.50
2023-01-06T09:07:27.135Z,0.60
2023-01-06T09:09:53.913Z,0.43
2023-01-06T09:12:22.053Z,0.57
2023-01-06T09:14:50.162Z,0.60
2023-01-06T09:17:18.030Z,0.80
2023-01-06T09:19:44.928Z,0.40
2023-01-06T09:22:11.691Z,0.80
2023-01-06T09:24:38.446Z,0.80
2023-01-06T09:27:05.224Z,0.50
2023-01-06T09:29:31.998Z,0.50
2023-01-06T09:31:58.678Z,0.60
2023-01-06T09:34:26.457Z,1.23
2023-01-06T09:36:53.255Z,0.60
2023-01-06T09:39:20.094Z,0.55
2023-01-06T09:42:14.869Z,0.65
2023-01-06T09:47:13.841Z,0.60
2023-01-06T09:49:46.978Z,0.60
2023-01-06T09:52:19.679Z,0.40
2023-01-06T09:54:58.009Z,0.50
2023-01-06T09:57:48.614Z,0.50
2023-01-06T10:00:43.471Z,0.55
2023-01-06T10:03:21.827Z,0.40
2023-01-06T10:05:58.905Z,0.55
2023-01-06T10:08:28.719Z,0.50
2023-01-06T10:11:30.722Z,1.10
2023-01-06T10:14:18.277Z,0.68
2023-01-06T10:17:05.735Z,0.60
2023-01-06T10:19:54.143Z,1.00
2023-01-06T10:22:51.718Z,0.80
2023-01-06T10:25:18.531Z,0.63
2023-01-06T10:27:50.880Z,0.73
2023-01-06T10:30:30.769Z,0.75
2023-01-06T10:33:00.927Z,0.40
2023-01-06T10:35:28.370Z,0.50
2023-01-06T10:37:57.954Z,0.40
2023-01-06T10:40:30.627Z,0.40
2023-01-06T10:43:08.877Z,0.50
2023-01-06T10:45:44.113Z,0.50
2023-01-06T10:48:20.539Z,0.50
2023-01-06T10:50:47.768Z,0.32
2023-01-06T10:53:16.519Z,0.50
2023-01-06T10:56:01.539Z,0.60
2023-01-06T10:58:43.356Z,0.50
2023-01-06T11:01:33.909Z,0.60
2023-01-06T11:04:12.081Z,0.38
2023-01-06T11:06:50.199Z,0.50
2023-01-06T11:09:40.676Z,0.40
2023-01-06T11:12:14.604Z,0.50
2023-01-06T11:14:41.828Z,0.50
2023-01-06T11:17:16.058Z,0.50
2023-01-06T11:19:45.930Z,0.45
2023-01-06T11:22:36.128Z,0.40
2023-01-06T11:25:21.841Z,0.40
2023-01-06T11:28:20.657Z,0.40
2023-01-06T11:30:55.621Z,0.40
2023-01-06T11:33:29.714Z,0.50
2023-01-06T11:38:25.290Z,0.40
2023-01-06T11:40:53.713Z,0.40
2023-01-06T11:43:25.443Z,0.40
2023-01-06T11:45:59.867Z,0.50
2023-01-06T11:48:31.566Z,0.40
2023-01-06T11:51:01.155Z,0.40
2023-01-06T11:53:29.948Z,0.40
2023-01-06T11:56:05.541Z,0.43
2023-01-06T11:58:51.593Z,0.45
2023-01-06T12:01:51.240Z,0.30
2023-01-06T12:04:42.272Z,0.30
2023-01-06T12:07:27.353Z,0.40
2023-01-06T12:09:56.721Z,0.40
2023-01-06T12:12:27.377Z,1.00
2023-01-06T12:14:55.069Z,0.50
2023-01-06T12:17:41.147Z,0.50
2023-01-06T12:20:28.875Z,0.68
2023-01-06T12:23:05.743Z,0.50
2023-01-06T12:25:39.041Z,0.60
2023-01-06T12:28:28.316Z,0.40
2023-01-06T12:31:35.298Z,0.40
2023-01-06T12:34:21.901Z,0.45
2023-01-06T12:37:15.970Z,0.60
2023-01-06T12:40:13.468Z,0.40
2023-01-06T12:43:02.013Z,0.40
2023-01-06T12:45:33.783Z,0.40
2023-01-06T12:48:05.886Z,0.50
2023-01-06T12:50:54.095Z,0.60
2023-01-06T12:53:28.204Z,0.40
2023-01-06T12:58:58.744Z,0.40
2023-01-06T13:01:51.149Z,0.40
2023-01-06T13:04:38.273Z,0.68
2023-01-06T13:07:29.537Z,0.40
2023-01-06T13:10:14.845Z,0.32
2023-01-06T13:12:58.828Z,0.40
2023-01-06T13:15:31.936Z,0.30
2023-01-06T13:18:06.373Z,0.40
2023-01-06T13:21:04.442Z,0.47
2023-01-06T13:23:58.807Z,0.43
2023-01-06T13:26:53.878Z,0.50
2023-01-06T13:29:29.546Z,0.40
2023-01-06T13:32:14.970Z,0.30
2023-01-06T13:35:01.076Z,0.45
2023-01-06T13:38:05.419Z,0.40
2023-01-06T13:40:36.590Z,0.50
2023-01-06T13:43:28.145Z,0.40
2023-01-06T13:46:00.191Z,0.40
2023-01-06T13:48:32.065Z,0.30
2023-01-06T13:51:02.551Z,0.30
2023-01-06T13:53:37.608Z,0.30
2023-01-06T13:56:13.555Z,0.40
2023-01-06T13:58:47.903Z,0.40
2023-01-06T14:01:20.601Z,0.30
2023-01-06T14:03:49.722Z,0.73
2023-01-06T14:06:22.788Z,0.40
2023-01-06T14:08:57.194Z,0.40
2023-01-06T14:11:30.592Z,0.52
2023-01-06T14:14:03.733Z,0.50
2023-01-06T14:16:49.773Z,0.40
2023-01-06T14:19:36.316Z,0.80
2023-01-06T14:22:17.245Z,0.80
2023-01-06T14:24:52.351Z,0.57
2023-01-06T14:27:47.829Z,0.60
2023-01-06T14:30:31.953Z,0.50
2023-01-06T14:33:06.762Z,0.47
2023-01-06T14:35:43.890Z,0.50
2023-01-06T14:38:32.059Z,0.50
2023-01-06T14:41:05.259Z,0.40
2023-01-06T14:43:55.356Z,0.50
2023-01-06T14:46:41.926Z,0.40
2023-01-06T14:49:20.975Z,0.40
2023-01-06T14:51:50.714Z,0.50
2023-01-06T14:54:39.160Z,0.50
2023-01-06T14:57:06.598Z,0.40
2023-01-06T14:59:33.886Z,0.50
2023-01-06T15:02:04.332Z,0.40
2023-01-06T15:04:33.698Z,0.50
2023-01-06T15:07:19.633Z,0.45
2023-01-06T15:09:48.133Z,0.40
2023-01-06T15:12:29.468Z,0.47
2023-01-06T15:14:57.973Z,0.50
2023-01-06T15:17:26.667Z,0.60
2023-01-06T15:19:54.020Z,0.60
2023-01-06T15:22:24.869Z,0.95
2023-01-06T15:24:52.325Z,0.50
2023-01-06T15:27:20.123Z,0.40
2023-01-06T15:29:56.493Z,0.60
2023-01-06T15:32:25.485Z,0.60
2023-01-06T15:34:56.571Z,1.05
2023-01-06T15:37:26.466Z,1.25
2023-01-06T15:39:54.120Z,0.80
2023-01-06T15:42:26.351Z,0.47
2023-01-06T15:44:58.649Z,0.70
2023-01-06T15:47:28.354Z,0.60
2023-01-06T15:49:57.070Z,0.55
2023-01-06T15:52:34.791Z,1.10
2023-01-06T15:55:04.815Z,0.70
2023-01-06T15:57:36.801Z,1.02
2023-01-06T16:00:19.610Z,1.15
2023-01-06T16:02:49.783Z,0.73
2023-01-06T16:06:11.647Z,0.60
2023-01-06T16:08:39.455Z,1.60
2023-01-06T16:11:16.040Z,0.93
2023-01-06T16:14:00.952Z,1.50
2023-01-06T16:16:40.321Z,1.20
2023-01-06T16:19:13.904Z,1.10
2023-01-06T16:21:43.445Z,1.23
2023-01-06T16:24:26.763Z,1.17
2023-01-06T16:26:57.307Z,3.40
2023-01-06T16:29:28.968Z,1.90
2023-01-06T16:31:57.503Z,2.00
2023-01-06T16:34:31.485Z,1.65
2023-01-06T16:36:59.985Z,1.55
2023-01-06T16:39:27.719Z,3.78
2023-01-06T16:42:00.443Z,2.10
2023-01-06T16:44:29.767Z,0.90
2023-01-06T16:47:00.064Z,0.77
2023-01-06T16:49:26.800Z,0.90
2023-01-06T16:51:56.298Z,1.25
2023-01-06T16:54:23.845Z,1.80
2023-01-06T16:56:52.205Z,1.67
2023-01-06T16:59:20.525Z,1.67
2023-01-06T17:01:48.632Z,1.30
2023-01-06T17:04:17.412Z,1.00
2023-01-06T17:06:45.900Z,0.70
2023-01-06T17:09:23.227Z,1.35
2023-01-06T17:11:56.059Z,1.00
2023-01-06T17:14:24.453Z,0.80
2023-01-06T17:16:51.221Z,1.25
2023-01-06T17:19:25.315Z,1.05
2023-01-06T17:24:30.631Z,1.98
2023-01-06T17:27:18.518Z,1.38
2023-01-06T17:29:45.314Z,1.20
2023-01-06T17:32:22.146Z,1.00
2023-01-06T17:34:49.136Z,1.08
2023-01-06T17:37:22.827Z,1.30
2023-01-06T17:39:50.279Z,0.90
2023-01-06T17:42:16.928Z,1.48
2023-01-06T17:44:51.612Z,1.10
2023-01-06T17:47:18.533Z,0.80
2023-01-06T17:49:55.595Z,0.80
2023-01-06T17:52:24.687Z,0.68
2023-01-06T17:55:17.154Z,0.70
2023-01-06T17:57:46.942Z,0.70
2023-01-06T18:00:38.579Z,0.68
2023-01-06T18:03:10.969Z,0.80
2023-01-06T18:05:37.664Z,0.70
2023-01-06T18:08:07.318Z,0.50
2023-01-06T18:10:36.158Z,0.57
2023-01-06T18:13:19.028Z,1.30
2023-01-06T18:15:48.748Z,1.48
2023-01-06T18:18:28.675Z,2.35
2023-01-06T18:20:58.476Z,1.80
2023-01-06T18:23:27.896Z,1.27
2023-01-06T18:25:58.800Z,0.93
2023-01-06T18:28:25.958Z,0.90
2023-01-06T18:31:00.752Z,0.95
2023-01-06T18:33:28.885Z,0.90
2023-01-06T18:35:58.520Z,0.60
2023-01-06T18:38:27.165Z,0.63
2023-01-06T18:40:55.072Z,0.82
2023-01-06T18:43:41.835Z,0.70
2023-01-06T18:46:15.363Z,1.63
2023-01-06T18:48:42.938Z,3.90
2023-01-06T18:51:35.780Z,1.88
2023-01-06T18:54:15.944Z,1.58
2023-01-06T18:56:46.225Z,1.42
2023-01-06T18:59:19.169Z,1.15
2023-01-06T19:01:50.802Z,1.10
2023-01-06T19:04:31.113Z,0.80
2023-01-06T19:07:08.655Z,1.00
2023-01-06T19:09:41.869Z,1.15
2023-01-06T19:12:08.576Z,2.47
2023-01-06T19:14:43.401Z,4.88
2023-01-06T19:17:17.566Z,3.13
2023-01-06T19:19:44.655Z,2.40
2023-01-06T19:22:28.086Z,1.85
2023-01-06T19:25:04.548Z,3.70
2023-01-06T19:27:39.368Z,4.57
2023-01-06T19:30:31.268Z,3.63
2023-01-06T19:33:26.806Z,4.22
2023-01-06T19:36:06.215Z,1.90
2023-01-06T19:38:41.140Z,1.40
2023-01-06T19:41:17.010Z,1.27
2023-01-06T19:43:44.016Z,1.00
2023-01-06T19:46:25.144Z,1.08
2023-01-06T19:48:54.361Z,1.55
2023-01-06T19:51:30.071Z,1.00
2023-01-06T19:54:20.166Z,0.60
2023-01-06T19:56:48.691Z,0.93
2023-01-06T19:59:17.348Z,0.60
2023-01-06T20:01:45.412Z,0.52
2023-01-06T20:04:22.244Z,0.65
2023-01-06T20:06:49.575Z,0.60
2023-01-06T20:09:19.133Z,0.50
2023-01-06T20:11:46.624Z,0.60
2023-01-06T20:14:13.500Z,0.55
2023-01-06T20:16:41.234Z,0.60
2023-01-06T20:19:08.091Z,0.70
2023-01-06T20:21:34.793Z,0.60
2023-01-06T20:24:01.510Z,0.68
2023-01-06T20:26:28.201Z,0.70
2023-01-06T20:28:54.933Z,0.60
2023-01-06T20:31:21.749Z,0.60
2023-01-06T20:33:48.484Z,0.60
2023-01-06T20:36:17.200Z,0.60
2023-01-06T20:38:44.957Z,0.60
2023-01-06T20:41:12.090Z,0.50
2023-01-06T20:43:38.981Z,0.60
2023-01-06T20:46:07.039Z,0.57
2023-01-06T20:48:33.939Z,0.70
2023-01-06T20:51:01.485Z,0.60
2023-01-06T20:53:28.266Z,0.60
2023-01-06T20:55:56.126Z,0.50
2023-01-06T20:58:22.892Z,0.70
2023-01-06T21:00:50.741Z,0.60
2023-01-06T21:03:18.902Z,0.60
2023-01-06T21:05:45.623Z,0.60
2023-01-06T21:08:12.430Z,0.70
2023-01-06T21:10:39.584Z,0.70
2023-01-06T21:13:06.409Z,0.65
2023-01-06T21:15:33.150Z,0.60
2023-01-06T21:18:00.919Z,0.70
2023-01-06T21:20:29.088Z,0.90
2023-01-06T21:22:55.797Z,0.60
2023-01-06T21:25:24.690Z,0.55
2023-01-06T21:27:51.440Z,0.70
2023-01-06T21:30:18.320Z,0.52
2023-01-06T21:32:46.468Z,0.65
2023-01-06T21:35:13.301Z,0.73
2023-01-06T21:37:40.119Z,0.90
2023-01-06T21:40:08.603Z,0.93
2023-01-06T21:42:54.439Z,0.80
2023-01-06T21:45:22.697Z,0.80
2023-01-06T21:47:49.403Z,0.93
2023-01-06T21:50:17.602Z,0.88
2023-01-06T21:52:46.616Z,0.85
2023-01-06T21:55:13.444Z,0.80
2023-01-06T21:57:40.671Z,0.77
2023-01-06T22:00:10.269Z,0.57
2023-01-06T22:02:37.354Z,0.80
2023-01-06T22:05:08.298Z,0.68
2023-01-06T22:07:38.146Z,0.70
2023-01-06T22:10:06.267Z,0.82
2023-01-06T22:12:33.872Z,0.75
2023-01-06T22:15:01.166Z,0.88
2023-01-06T22:17:28.027Z,0.85
2023-01-06T22:19:55.452Z,0.80
2023-01-06T22:22:23.400Z,0.80
2023-01-06T22:24:52.557Z,0.80
2023-01-06T22:27:19.371Z,0.90
2023-01-06T22:29:46.072Z,0.90
2023-01-06T22:32:14.799Z,0.90
2023-01-06T22:34:41.867Z,0.80
2023-01-06T22:37:10.141Z,0.90
2023-01-06T22:39:37.503Z,0.90
2023-01-06T22:42:04.421Z,0.90
2023-01-06T22:44:31.172Z,0.85
2023-01-06T22:46:57.901Z,0.65
2023-01-06T22:49:25.101Z,0.90
2023-01-06T22:51:52.129Z,0.80
2023-01-06T22:54:19.066Z,0.80
2023-01-06T22:56:46.139Z,0.80
2023-01-06T22:59:12.974Z,0.90
2023-01-06T23:01:42.048Z,0.80
2023-01-06T23:04:09.035Z,0.70
2023-01-06T23:06:35.819Z,0.75
2023-01-06T23:09:03.846Z,0.90
2023-01-06T23:11:32.603Z,0.85
2023-01-06T23:13:59.535Z,0.80
2023-01-06T23:16:27.227Z,0.88
2023-01-06T23:18:54.228Z,0.75
2023-01-06T23:21:23.945Z,0.93
2023-01-06T23:23:51.690Z,0.80
2023-01-06T23:26:34.109Z,0.77
2023-01-06T23:29:01.394Z,0.70
2023-01-06T23:31:30.978Z,0.77
2023-01-06T23:34:02.123Z,0.77
2023-01-06T23:36:30.827Z,0.70
2023-01-06T23:39:00.326Z,0.55
2023-01-06T23:41:30.596Z,0.75
2023-01-06T23:43:58.008Z,0.60
2023-01-06T23:46:30.735Z,1.05
2023-01-06T23:48:57.890Z,0.60
2023-01-06T23:51:25.759Z,0.80
2023-01-06T23:53:53.672Z,0.88
2023-01-06T23:56:23.212Z,0.70
2023-01-06T23:58:52.962Z,0.70
